Enchantment of the Seas — C6FZ7 — position and weather

sailwx.info

Track history (hours):
 
Tides and Currents Weather Stations Pressure Air Temp Water Temp Dewpoint Dewpoint Depression Visibility Wind Speed Wind Dir Waves Ship Positions

Enchantment of the Seas (Bahamas)

Last reported at 2018-May-24 04:43 UTC. Time now 2018-May-25 05:29 UTC.
Position N 25°18' W 079°59'.

Type: Passenger vessel. MMSI: 311733000.

Date/timePositionNaut miles runAvg speedWind from/ knotsBaromVisibWave heightAir tempDewpointWater temp
2018-May-24 04:43N 25°18' W 079°59'314.0
2018-May-24 04:30N 25°20' W 079°57'714.2
2018-May-24 04:00N 25°26' W 079°52'714.4
2018-May-24 03:30N 25°31' W 079°47'714.5
2018-May-24 03:00N 25°37' W 079°42'714.5
2018-May-24 02:30N 25°43' W 079°37'815.0
2018-May-24 01:56N 25°50' W 079°31'15 0.3
2018-May-21 22:52N 25°54' W 079°48'514.7
2018-May-21 22:30N 25°52' W 079°53'815.3
2018-May-21 22:00N 25°47' W 079°60'5 9.9
2018-May-21 21:30N 25°46' W 080°05'5 9.6
2018-May-21 21:00N 25°47' W 080°10'0 0.8
2018-May-21 20:30N 25°47' W 080°11'0 0.0
2018-May-21 20:00N 25°47' W 080°11'0 0.0
2018-May-21 19:30N 25°47' W 080°11'0 0.0
2018-May-21 18:57N 25°47' W 080°11'0 0.0
2018-May-21 18:30N 25°47' W 080°11'0 0.0
2018-May-21 18:00N 25°47' W 080°11'0 0.0
2018-May-21 17:30N 25°47' W 080°11'0 0.0
2018-May-21 17:00N 25°47' W 080°11'0 0.0
2018-May-21 16:30N 25°47' W 080°11'0 0.0
2018-May-21 16:00N 25°47' W 080°11'0 0.0
2018-May-21 15:30N 25°47' W 080°11'0 0.0
2018-May-21 14:57N 25°47' W 080°11'0 0.0
2018-May-21 14:30N 25°47' W 080°11'0 0.0
2018-May-21 14:00N 25°47' W 080°11'0 0.0
2018-May-21 13:30N 25°47' W 080°11'0 0.0
2018-May-21 13:00N 25°47' W 080°11'0 0.0
2018-May-21 12:30N 25°47' W 080°11'0 0.0
2018-May-21 12:00N 25°47' W 080°11'0 0.0
2018-May-21 11:27N 25°47' W 080°11'0 0.0
2018-May-21 10:57N 25°47' W 080°11'2 3.6
2018-May-21 10:30N 25°46' W 080°09'611.1
2018-May-21 10:00N 25°47' W 080°03'4 7.8
2018-May-21 09:31N 25°48' W 079°59'713.1
2018-May-21 09:00N 25°52' W 079°53'14012.7
2018-May-20 22:00N 25°12' W 077°24'122 2.7 110 / 221017.8 5.4 27.025.0
2018-May-19 00:56N 26°09' W 079°24'4 9.8
2018-May-19 00:29N 26°06' W 079°28'510.0
2018-May-19 00:00N 26°04' W 079°33'510.2
2018-May-18 23:29N 26°01' W 079°38'5 9.9
2018-May-18 23:00N 25°58' W 079°42'510.2
2018-May-18 22:30N 25°56' W 079°47'510.0
2018-May-18 22:00N 25°53' W 079°52'510.8
2018-May-18 21:30N 25°50' W 079°57'510.9
2018-May-18 21:00N 25°48' W 080°02'611.3
2018-May-18 20:30N 25°46' W 080°08'3 5.1
2018-May-18 19:59N 25°47' W 080°11'0 0.0
2018-May-18 19:29N 25°47' W 080°11'0 0.0
2018-May-18 18:59N 25°47' W 080°11'0 0.0
2018-May-18 18:29N 25°47' W 080°11'0 0.0
2018-May-18 17:59N 25°47' W 080°11'0 0.0
2018-May-18 17:29N 25°47' W 080°11'0 0.0
2018-May-18 16:59N 25°47' W 080°11'0 0.0
2018-May-18 16:29N 25°47' W 080°11'0 0.0
2018-May-18 15:59N 25°47' W 080°11'0 0.0
2018-May-18 15:29N 25°47' W 080°11'612.9
2018-May-18 15:00N 25°42' W 080°06'6999.3 130 / 101016.810.8 28.225.1
2018-May-18 14:59N 25°47' W 080°11'0 0.0
2018-May-18 14:29N 25°47' W 080°11'0 0.0
2018-May-18 13:59N 25°47' W 080°11'0 0.0
2018-May-18 13:29N 25°47' W 080°11'0 0.0
2018-May-18 12:56N 25°47' W 080°11'0 0.0
2018-May-18 12:29N 25°47' W 080°11'0 0.0
2018-May-18 11:56N 25°47' W 080°11'0 0.0
2018-May-18 11:26N 25°47' W 080°11'0 0.5
2018-May-18 10:59N 25°47' W 080°11'2 3.3
2018-May-18 10:31N 25°46' W 080°09'510.9
2018-May-18 10:00N 25°47' W 080°03'3 6.8
2018-May-18 09:30N 25°46' W 079°59'612.5
2018-May-18 09:00N 25°40' W 079°58'713.6
2018-May-18 08:30N 25°33' W 079°59'713.5
2018-May-18 08:00N 25°27' W 079°60'713.7
2018-May-18 07:30N 25°20' W 080°01'714.2
2018-May-18 07:00N 25°13' W 080°04'814.3
2018-May-18 06:29N 25°07' W 080°08'86 4.6
2018-May-17 12:00N 24°24' W 081°30'9315.8 150 / 121014.910.8 26.324.1
2018-May-17 06:04N 25°14' W 080°03'113.6
2018-May-17 05:58N 25°15' W 080°02'613.6
2018-May-17 05:30N 25°20' W 079°58'713.6
2018-May-17 05:00N 25°25' W 079°53'713.7
2018-May-17 04:30N 25°30' W 079°48'714.1
2018-May-17 04:01N 25°35' W 079°42'714.2
2018-May-17 03:31N 25°40' W 079°37'132 3.4
2018-May-15 13:00N 25°00' W 077°18'138 9.9 160 / 111016.710.8 26.026.0
2018-May-14 23:04N 25°59' W 079°36'114.3
2018-May-14 23:00N 25°58' W 079°37'714.5
2018-May-14 22:30N 25°55' W 079°45'714.7
2018-May-14 22:00N 25°52' W 079°52'714.7
2018-May-14 21:31N 25°49' W 079°59'611.6
2018-May-14 21:00N 25°46' W 080°05'5 9.5
2018-May-14 20:30N 25°47' W 080°10'0 0.8
2018-May-14 19:58N 25°47' W 080°11'0 0.0
2018-May-14 19:28N 25°47' W 080°11'0 0.0
2018-May-14 18:58N 25°47' W 080°11'0 0.0
2018-May-14 18:28N 25°47' W 080°11'0 0.0
2018-May-14 17:55N 25°47' W 080°11'0 0.0
2018-May-14 17:28N 25°47' W 080°11'0 0.0
2018-May-14 16:58N 25°47' W 080°11'0 0.0
2018-May-14 16:28N 25°47' W 080°11'0 0.0
2018-May-14 15:58N 25°47' W 080°11'0 0.0
2018-May-14 15:28N 25°47' W 080°11'0 0.0
2018-May-14 14:58N 25°47' W 080°11'0 0.0
2018-May-14 14:28N 25°47' W 080°11'0 0.0
2018-May-14 13:55N 25°47' W 080°11'0 0.0
2018-May-14 13:28N 25°47' W 080°11'0 0.0
2018-May-14 12:52N 25°47' W 080°11'0 0.0
2018-May-14 12:25N 25°47' W 080°11'0 0.0
2018-May-14 11:52N 25°47' W 080°11'0 0.0
2018-May-14 11:28N 25°47' W 080°11'0 0.0
2018-May-14 10:55N 25°47' W 080°11'0 0.2
2018-May-14 10:30N 25°47' W 080°10'4 8.4
2018-May-14 10:00N 25°46' W 080°06'612.5
2018-May-14 09:31N 25°49' W 079°60'815.5
2018-May-14 09:01N 25°52' W 079°52'714.2
2018-May-14 08:31N 25°55' W 079°45'  
Track history (hours):
 
Tides and Currents Weather Stations Pressure Air Temp Water Temp Dewpoint Dewpoint Depression Visibility Wind Speed Wind Dir Waves Ship Positions

Enchantment of the Seas (Bahamas)

Last reported at 2018-May-24 04:43 UTC. Time now 2018-May-25 05:29 UTC.
Position N 25°18' W 079°59'.

Type: Passenger vessel. MMSI: 311733000.

Date/timePositionNaut miles runAvg speedWind from/ knotsBaromVisibWave heightAir tempDewpointWater temp
2018-May-24 04:43N 25°18' W 079°59'314.0
2018-May-24 04:30N 25°20' W 079°57'714.2
2018-May-24 04:00N 25°26' W 079°52'714.4
2018-May-24 03:30N 25°31' W 079°47'714.5
2018-May-24 03:00N 25°37' W 079°42'714.5
2018-May-24 02:30N 25°43' W 079°37'815.0
2018-May-24 01:56N 25°50' W 079°31'15 0.3
2018-May-21 22:52N 25°54' W 079°48'514.7
2018-May-21 22:30N 25°52' W 079°53'815.3
2018-May-21 22:00N 25°47' W 079°60'5 9.9
2018-May-21 21:30N 25°46' W 080°05'5 9.6
2018-May-21 21:00N 25°47' W 080°10'0 0.8
2018-May-21 20:30N 25°47' W 080°11'0 0.0
2018-May-21 20:00N 25°47' W 080°11'0 0.0
2018-May-21 19:30N 25°47' W 080°11'0 0.0
2018-May-21 18:57N 25°47' W 080°11'0 0.0
2018-May-21 18:30N 25°47' W 080°11'0 0.0
2018-May-21 18:00N 25°47' W 080°11'0 0.0
2018-May-21 17:30N 25°47' W 080°11'0 0.0
2018-May-21 17:00N 25°47' W 080°11'0 0.0
2018-May-21 16:30N 25°47' W 080°11'0 0.0
2018-May-21 16:00N 25°47' W 080°11'0 0.0
2018-May-21 15:30N 25°47' W 080°11'0 0.0
2018-May-21 14:57N 25°47' W 080°11'0 0.0
2018-May-21 14:30N 25°47' W 080°11'0 0.0
2018-May-21 14:00N 25°47' W 080°11'0 0.0
2018-May-21 13:30N 25°47' W 080°11'0 0.0
2018-May-21 13:00N 25°47' W 080°11'0 0.0
2018-May-21 12:30N 25°47' W 080°11'0 0.0
2018-May-21 12:00N 25°47' W 080°11'0 0.0
2018-May-21 11:27N 25°47' W 080°11'0 0.0
2018-May-21 10:57N 25°47' W 080°11'2 3.6
2018-May-21 10:30N 25°46' W 080°09'611.1
2018-May-21 10:00N 25°47' W 080°03'4 7.8
2018-May-21 09:31N 25°48' W 079°59'713.1
2018-May-21 09:00N 25°52' W 079°53'14012.7
2018-May-20 22:00N 25°12' W 077°24'122 2.7 110 / 221017.8 5.4 27.025.0
2018-May-19 00:56N 26°09' W 079°24'4 9.8
2018-May-19 00:29N 26°06' W 079°28'510.0
2018-May-19 00:00N 26°04' W 079°33'510.2
2018-May-18 23:29N 26°01' W 079°38'5 9.9
2018-May-18 23:00N 25°58' W 079°42'510.2
2018-May-18 22:30N 25°56' W 079°47'510.0
2018-May-18 22:00N 25°53' W 079°52'510.8
2018-May-18 21:30N 25°50' W 079°57'510.9
2018-May-18 21:00N 25°48' W 080°02'611.3
2018-May-18 20:30N 25°46' W 080°08'3 5.1
2018-May-18 19:59N 25°47' W 080°11'0 0.0
2018-May-18 19:29N 25°47' W 080°11'0 0.0
2018-May-18 18:59N 25°47' W 080°11'0 0.0
2018-May-18 18:29N 25°47' W 080°11'0 0.0
2018-May-18 17:59N 25°47' W 080°11'0 0.0
2018-May-18 17:29N 25°47' W 080°11'0 0.0
2018-May-18 16:59N 25°47' W 080°11'0 0.0
2018-May-18 16:29N 25°47' W 080°11'0 0.0
2018-May-18 15:59N 25°47' W 080°11'0 0.0
2018-May-18 15:29N 25°47' W 080°11'612.9
2018-May-18 15:00N 25°42' W 080°06'6999.3 130 / 101016.810.8 28.225.1
2018-May-18 14:59N 25°47' W 080°11'0 0.0
2018-May-18 14:29N 25°47' W 080°11'0 0.0
2018-May-18 13:59N 25°47' W 080°11'0 0.0
2018-May-18 13:29N 25°47' W 080°11'0 0.0
2018-May-18 12:56N 25°47' W 080°11'0 0.0
2018-May-18 12:29N 25°47' W 080°11'0 0.0
2018-May-18 11:56N 25°47' W 080°11'0 0.0
2018-May-18 11:26N 25°47' W 080°11'0 0.5
2018-May-18 10:59N 25°47' W 080°11'2 3.3
2018-May-18 10:31N 25°46' W 080°09'510.9
2018-May-18 10:00N 25°47' W 080°03'3 6.8
2018-May-18 09:30N 25°46' W 079°59'612.5
2018-May-18 09:00N 25°40' W 079°58'713.6
2018-May-18 08:30N 25°33' W 079°59'713.5
2018-May-18 08:00N 25°27' W 079°60'713.7
2018-May-18 07:30N 25°20' W 080°01'714.2
2018-May-18 07:00N 25°13' W 080°04'814.3
2018-May-18 06:29N 25°07' W 080°08'86 4.6
2018-May-17 12:00N 24°24' W 081°30'9315.8 150 / 121014.910.8 26.324.1
2018-May-17 06:04N 25°14' W 080°03'113.6
2018-May-17 05:58N 25°15' W 080°02'613.6
2018-May-17 05:30N 25°20' W 079°58'713.6
2018-May-17 05:00N 25°25' W 079°53'713.7
2018-May-17 04:30N 25°30' W 079°48'714.1
2018-May-17 04:01N 25°35' W 079°42'714.2
2018-May-17 03:31N 25°40' W 079°37'132 3.4
2018-May-15 13:00N 25°00' W 077°18'138 9.9 160 / 111016.710.8 26.026.0
2018-May-14 23:04N 25°59' W 079°36'114.3
2018-May-14 23:00N 25°58' W 079°37'714.5
2018-May-14 22:30N 25°55' W 079°45'714.7
2018-May-14 22:00N 25°52' W 079°52'714.7
2018-May-14 21:31N 25°49' W 079°59'611.6
2018-May-14 21:00N 25°46' W 080°05'5 9.5
2018-May-14 20:30N 25°47' W 080°10'0 0.8
2018-May-14 19:58N 25°47' W 080°11'0 0.0
2018-May-14 19:28N 25°47' W 080°11'0 0.0
2018-May-14 18:58N 25°47' W 080°11'0 0.0
2018-May-14 18:28N 25°47' W 080°11'0 0.0
2018-May-14 17:55N 25°47' W 080°11'0 0.0
2018-May-14 17:28N 25°47' W 080°11'0 0.0
2018-May-14 16:58N 25°47' W 080°11'0 0.0
2018-May-14 16:28N 25°47' W 080°11'0 0.0
2018-May-14 15:58N 25°47' W 080°11'0 0.0
2018-May-14 15:28N 25°47' W 080°11'0 0.0
2018-May-14 14:58N 25°47' W 080°11'0 0.0
2018-May-14 14:28N 25°47' W 080°11'0 0.0
2018-May-14 13:55N 25°47' W 080°11'0 0.0
2018-May-14 13:28N 25°47' W 080°11'0 0.0
2018-May-14 12:52N 25°47' W 080°11'0 0.0
2018-May-14 12:25N 25°47' W 080°11'0 0.0
2018-May-14 11:52N 25°47' W 080°11'0 0.0
2018-May-14 11:28N 25°47' W 080°11'0 0.0
2018-May-14 10:55N 25°47' W 080°11'0 0.2
2018-May-14 10:30N 25°47' W 080°10'4 8.4
2018-May-14 10:00N 25°46' W 080°06'612.5
2018-May-14 09:31N 25°49' W 079°60'815.5
2018-May-14 09:01N 25°52' W 079°52'714.2
2018-May-14 08:31N 25°55' W 079°45'  

Dump ship's entire track history